Time;durP1;ratioP1;P1;durP2;ratioP2;P2;SDS_P1;SDS_P2;PMS_P1;PMS_P2;Temp;Humidity;BMP_temperature;BMP_pressure;BME280_temperature;BME280_humidity;BME280_pressure;Samples;Min_cycle;Max_cycle;Signal;HPM_P1;HPM_P2
2022/05/01 00:01:46;;;;;;;16.37;12.67;;;10.50;99.90;;;;;;5083033;28;20447;-77
2022/05/01 00:04:33;;;;;;;20.33;13.10;;;10.60;99.90;;;;;;5088165;28;20529;-77
2022/05/01 00:07:19;;;;;;;16.30;13.70;;;10.60;99.90;;;;;;5088227;28;20583;-76
2022/05/01 00:10:06;;;;;;;16.00;12.50;;;10.60;99.90;;;;;;5083915;28;21104;-77
2022/05/01 00:12:52;;;;;;;16.20;13.20;;;10.60;99.90;;;;;;5086073;28;20456;-76
2022/05/01 00:15:37;;;;;;;17.20;12.77;;;10.50;99.90;;;;;;5083754;28;20468;-77
2022/05/01 00:18:24;;;;;;;16.40;12.80;;;10.40;99.90;;;;;;5084761;28;20412;-77
2022/05/01 00:21:11;;;;;;;14.80;12.13;;;10.30;99.90;;;;;;5085416;28;20955;-76
2022/05/01 00:23:56;;;;;;;22.30;12.70;;;10.40;99.90;;;;;;5087927;28;20427;-77
2022/05/01 00:26:42;;;;;;;18.10;12.50;;;10.40;99.90;;;;;;5085524;28;20442;-77
2022/05/01 00:29:28;;;;;;;13.57;11.33;;;10.30;99.90;;;;;;5082003;28;20929;-76
2022/05/01 00:32:14;;;;;;;15.43;11.33;;;10.30;99.90;;;;;;5088857;28;20412;-77
2022/05/01 00:38:04;;;;;;;14.40;11.63;;;10.40;99.90;;;;;;5088813;28;20460;-77
2022/05/01 00:40:50;;;;;;;17.87;13.50;;;10.30;99.90;;;;;;5081889;28;20848;-77
2022/05/01 00:44:03;;;;;;;16.80;13.00;;;10.30;99.90;;;;;;5087201;28;20459;-77
2022/05/01 00:46:51;;;;;;;15.60;12.50;;;10.30;99.90;;;;;;5087132;28;20484;-77
2022/05/01 00:49:36;;;;;;;18.90;11.37;;;10.30;99.90;;;;;;5082847;28;20523;-76
2022/05/01 00:52:23;;;;;;;15.10;11.03;;;10.40;99.90;;;;;;5085614;28;20547;-76
2022/05/01 00:55:10;;;;;;;14.97;11.00;;;10.40;99.90;;;;;;5088362;28;20415;-77
2022/05/01 00:57:56;;;;;;;12.33;10.90;;;10.30;99.90;;;;;;5087436;28;20421;-77
2022/05/01 01:00:42;;;;;;;17.70;12.10;;;10.30;99.90;;;;;;5082999;28;20529;-77
2022/05/01 01:03:28;;;;;;;24.23;12.63;;;10.40;99.90;;;;;;5091442;28;21027;-77
2022/05/01 01:06:14;;;;;;;12.20;10.77;;;10.40;99.90;;;;;;5091648;28;20444;-77
2022/05/01 01:09:00;;;;;;;17.23;11.80;;;10.40;99.90;;;;;;5088236;28;21063;-76
2022/05/01 01:11:47;;;;;;;15.27;12.17;;;10.40;99.90;;;;;;5089163;28;20447;-77
2022/05/01 01:14:33;;;;;;;14.30;11.30;;;10.40;99.90;;;;;;5091537;28;20468;-77
2022/05/01 01:17:18;;;;;;;17.90;11.67;;;10.40;99.90;;;;;;5090921;28;20422;-77
2022/05/01 01:20:11;;;;;;;15.40;11.30;;;10.40;99.90;;;;;;5086538;28;20443;-77
2022/05/01 01:23:00;;;;;;;17.50;13.50;;;10.50;99.90;;;;;;5090748;28;20795;-77
2022/05/01 01:25:48;;;;;;;17.13;11.23;;;10.50;99.90;;;;;;5089032;28;20465;-77
2022/05/01 01:28:35;;;;;;;23.13;13.30;;;10.40;99.90;;;;;;5087616;28;20581;-75
2022/05/01 01:34:36;;;;;;;21.03;11.50;;;10.40;99.90;;;;;;5089635;28;20521;-76
2022/05/01 01:37:25;;;;;;;11.87;10.57;;;10.40;99.90;;;;;;5087585;28;20444;-77
2022/05/01 01:40:14;;;;;;;13.73;11.50;;;10.50;99.90;;;;;;5086069;28;20535;-77
2022/05/01 01:43:00;;;;;;;16.60;11.50;;;10.50;99.90;;;;;;5090233;28;20450;-76
2022/05/01 01:45:46;;;;;;;13.00;11.50;;;10.40;99.90;;;;;;5091167;28;20488;-77
2022/05/01 01:48:32;;;;;;;13.50;11.47;;;10.20;99.90;;;;;;5086526;28;20423;-75
2022/05/01 01:51:18;;;;;;;17.47;11.50;;;10.10;99.90;;;;;;5090646;28;20564;-77
2022/05/01 01:54:04;;;;;;;16.60;10.90;;;10.20;99.90;;;;;;5091163;28;20494;-77
2022/05/01 01:56:51;;;;;;;13.13;11.63;;;10.30;99.90;;;;;;5090963;28;20453;-77
2022/05/01 01:59:37;;;;;;;21.63;12.13;;;10.30;99.90;;;;;;5081372;28;20440;-77
2022/05/01 02:02:22;;;;;;;13.87;11.77;;;10.30;99.90;;;;;;5088898;28;20477;-77
2022/05/01 02:05:09;;;;;;;14.83;13.10;;;10.30;99.90;;;;;;5090444;28;21096;-76
2022/05/01 02:07:55;;;;;;;21.80;13.10;;;10.20;99.90;;;;;;5088201;28;20973;-75
2022/05/01 02:10:41;;;;;;;14.87;12.77;;;10.10;99.90;;;;;;5087863;28;21036;-76
2022/05/01 02:13:28;;;;;;;18.00;12.53;;;10.10;99.90;;;;;;5086112;28;20453;-77
2022/05/01 02:16:14;;;;;;;19.60;12.83;;;10.10;99.90;;;;;;5090117;28;20449;-77
2022/05/01 02:18:59;;;;;;;14.93;12.53;;;10.20;99.90;;;;;;5085503;28;20530;-77
2022/05/01 02:21:45;;;;;;;19.70;13.90;;;10.30;99.90;;;;;;5088509;28;20466;-77
2022/05/01 02:24:31;;;;;;;19.70;14.10;;;10.20;99.90;;;;;;5087692;28;20516;-77
2022/05/01 02:27:17;;;;;;;16.60;12.73;;;10.10;99.90;;;;;;5088382;28;20452;-77
2022/05/01 02:30:05;;;;;;;17.23;13.40;;;10.20;99.90;;;;;;5089189;28;20481;-77
2022/05/01 02:32:51;;;;;;;16.47;13.93;;;10.20;99.90;;;;;;5089003;28;20925;-77
2022/05/01 02:35:37;;;;;;;14.27;12.70;;;10.20;99.90;;;;;;5085490;28;20431;-77
2022/05/01 02:38:23;;;;;;;17.43;12.40;;;10.30;99.90;;;;;;5084874;28;20445;-77
2022/05/01 02:41:09;;;;;;;14.20;11.73;;;10.30;99.90;;;;;;5089708;28;21122;-77
2022/05/01 02:43:56;;;;;;;16.00;12.90;;;10.30;99.90;;;;;;5088593;28;20452;-77
2022/05/01 02:46:44;;;;;;;13.90;12.40;;;10.20;99.90;;;;;;5086060;28;20420;-76
2022/05/01 02:49:29;;;;;;;25.57;13.60;;;10.10;99.90;;;;;;5086676;28;20816;-77
2022/05/01 02:52:15;;;;;;;19.57;13.10;;;10.20;99.90;;;;;;5089968;28;20438;-76
2022/05/01 02:55:00;;;;;;;20.70;12.77;;;10.10;99.90;;;;;;5089277;28;20462;-75
2022/05/01 02:57:46;;;;;;;15.37;12.20;;;10.20;99.90;;;;;;5081013;28;20426;-76
2022/05/01 03:00:33;;;;;;;16.40;13.20;;;10.30;99.90;;;;;;5089384;28;20476;-75
2022/05/01 03:03:20;;;;;;;20.03;11.93;;;10.30;99.90;;;;;;5090180;28;20489;-75
2022/05/01 03:06:06;;;;;;;15.37;13.00;;;10.30;99.90;;;;;;5089497;28;20416;-76
2022/05/01 03:08:51;;;;;;;16.30;11.80;;;10.20;99.90;;;;;;5082278;28;20956;-75
2022/05/01 03:11:37;;;;;;;16.17;12.70;;;10.10;99.90;;;;;;5088456;28;20441;-75
2022/05/01 03:14:23;;;;;;;16.80;11.30;;;10.10;99.90;;;;;;5088327;28;20437;-76
2022/05/01 03:17:08;;;;;;;19.17;12.80;;;10.10;99.90;;;;;;5083957;28;20921;-76
2022/05/01 03:22:59;;;;;;;15.80;12.83;;;10.00;99.90;;;;;;5087641;28;20497;-75
2022/05/01 03:25:44;;;;;;;19.43;11.77;;;9.90;99.90;;;;;;5086250;28;20959;-75
2022/05/01 03:28:30;;;;;;;14.87;12.87;;;9.90;99.90;;;;;;5085419;28;21017;-77
2022/05/01 03:31:16;;;;;;;15.67;12.00;;;9.80;99.90;;;;;;5088478;28;20460;-74
2022/05/01 03:34:04;;;;;;;14.80;13.20;;;9.90;99.90;;;;;;5088371;28;20543;-75
2022/05/01 03:36:51;;;;;;;14.17;11.83;;;9.90;99.90;;;;;;5082285;28;20453;-76
2022/05/01 03:39:37;;;;;;;16.57;12.70;;;9.90;99.90;;;;;;5087100;28;20467;-75
2022/05/01 03:42:22;;;;;;;16.57;12.20;;;9.90;99.90;;;;;;5088053;28;20519;-75
2022/05/01 03:45:09;;;;;;;14.30;12.90;;;9.90;99.90;;;;;;5088310;28;20444;-75
2022/05/01 03:47:55;;;;;;;14.77;12.10;;;9.90;99.90;;;;;;5082419;28;20465;-75
2022/05/01 03:50:40;;;;;;;12.97;11.20;;;10.00;99.90;;;;;;5087829;28;20465;-74
2022/05/01 03:53:29;;;;;;;15.50;12.10;;;10.00;99.90;;;;;;5088956;28;20583;-75
2022/05/01 03:56:15;;;;;;;13.20;10.93;;;9.90;99.90;;;;;;5084069;28;20540;-74
2022/05/01 03:59:04;;;;;;;14.10;12.20;;;9.90;99.90;;;;;;5085621;28;20902;-75
2022/05/01 04:01:49;;;;;;;15.40;12.20;;;9.90;99.90;;;;;;5088680;28;20467;-75
2022/05/01 04:04:35;;;;;;;15.73;12.53;;;9.90;99.90;;;;;;5087806;28;20594;-76
2022/05/01 04:07:21;;;;;;;15.90;12.73;;;9.90;99.90;;;;;;5082577;28;20445;-75
2022/05/01 04:10:10;;;;;;;17.77;11.60;;;9.90;99.90;;;;;;5087183;28;20472;-76
2022/05/01 04:12:56;;;;;;;20.73;11.90;;;9.80;99.90;;;;;;5087050;28;20505;-76
2022/05/01 04:15:42;;;;;;;17.40;12.73;;;9.80;99.90;;;;;;5087207;28;20473;-75
2022/05/01 04:18:27;;;;;;;12.93;11.57;;;9.80;99.90;;;;;;5088087;28;20428;-75
2022/05/01 04:21:13;;;;;;;17.10;11.77;;;9.80;99.90;;;;;;5089540;28;20456;-74
2022/05/01 04:23:59;;;;;;;16.10;12.07;;;9.90;99.90;;;;;;5086998;28;20452;-76
2022/05/01 04:26:46;;;;;;;14.27;12.23;;;9.80;99.90;;;;;;5082764;28;20445;-76
2022/05/01 04:29:37;;;;;;;14.23;12.60;;;9.90;99.90;;;;;;5086781;28;21043;-75
2022/05/01 04:32:23;;;;;;;15.17;12.70;;;10.00;99.90;;;;;;5089466;28;20412;-75
2022/05/01 04:35:09;;;;;;;14.67;11.50;;;10.10;99.90;;;;;;5088039;28;20445;-75
2022/05/01 04:37:55;;;;;;;15.53;11.27;;;10.00;99.90;;;;;;5090623;28;20778;-75
2022/05/01 04:40:43;;;;;;;17.10;13.40;;;9.90;99.90;;;;;;5089460;28;20588;-74
2022/05/01 04:43:31;;;;;;;15.33;12.17;;;10.10;99.90;;;;;;5090002;28;20584;-75
2022/05/01 04:46:17;;;;;;;14.83;12.10;;;10.00;99.90;;;;;;5087092;28;20439;-76
2022/05/01 04:49:02;;;;;;;16.37;11.77;;;10.00;99.90;;;;;;5091917;28;20994;-75
2022/05/01 04:51:48;;;;;;;17.00;12.43;;;10.00;99.90;;;;;;5092538;28;20415;-75
2022/05/01 04:54:34;;;;;;;17.40;13.77;;;10.10;99.90;;;;;;5088142;28;20936;-75
2022/05/01 04:57:20;;;;;;;16.57;12.97;;;10.10;99.90;;;;;;5088683;28;20550;-76
2022/05/01 05:00:08;;;;;;;16.13;11.70;;;10.10;99.90;;;;;;5091947;28;20497;-75
2022/05/01 05:02:56;;;;;;;16.27;12.50;;;10.20;99.90;;;;;;5091923;28;20521;-75
2022/05/01 05:05:42;;;;;;;15.90;12.23;;;10.20;99.90;;;;;;5084750;28;20431;-75
2022/05/01 05:11:31;;;;;;;16.80;13.20;;;10.30;99.90;;;;;;5087403;28;20419;-76
2022/05/01 05:14:16;;;;;;;14.23;12.77;;;10.30;99.90;;;;;;5093564;28;21017;-75
2022/05/01 05:17:06;;;;;;;14.20;12.13;;;10.40;99.90;;;;;;5091182;28;20424;-75
2022/05/01 05:19:52;;;;;;;20.37;14.10;;;10.40;99.90;;;;;;5091289;28;20442;-76
2022/05/01 05:22:38;;;;;;;15.73;11.93;;;10.30;99.90;;;;;;5093259;28;20994;-77
2022/05/01 05:25:24;;;;;;;19.03;12.67;;;10.20;99.90;;;;;;5089316;28;20519;-77
2022/05/01 05:28:10;;;;;;;22.57;13.77;;;10.30;99.90;;;;;;5090933;28;20775;-76
2022/05/01 05:30:56;;;;;;;18.47;13.23;;;10.40;99.90;;;;;;5091233;28;20477;-76
2022/05/01 05:33:43;;;;;;;15.93;12.47;;;10.30;99.90;;;;;;5088359;28;20469;-76
2022/05/01 05:36:29;;;;;;;18.97;13.00;;;10.40;99.90;;;;;;5087822;28;20834;-76
2022/05/01 05:39:15;;;;;;;14.93;12.93;;;10.50;99.90;;;;;;5091546;28;20831;-76
2022/05/01 05:42:01;;;;;;;13.23;11.17;;;10.50;99.90;;;;;;5090385;28;20593;-76
2022/05/01 05:44:46;;;;;;;14.07;12.27;;;10.60;99.90;;;;;;5086858;28;20456;-77
2022/05/01 05:47:32;;;;;;;15.60;13.00;;;10.60;99.90;;;;;;5087164;28;20503;-77
2022/05/01 05:50:20;;;;;;;17.10;11.60;;;10.70;99.90;;;;;;5090138;28;20989;-75
2022/05/01 05:53:05;;;;;;;16.70;13.57;;;10.80;99.90;;;;;;5089338;28;20508;-76
2022/05/01 05:55:51;;;;;;;15.50;12.67;;;10.80;99.90;;;;;;5082437;28;20453;-76
2022/05/01 05:58:37;;;;;;;18.50;12.83;;;10.80;99.90;;;;;;5091581;28;20665;-77
2022/05/01 06:01:23;;;;;;;14.50;12.90;;;10.90;99.90;;;;;;5090764;28;20435;-77
2022/05/01 06:04:09;;;;;;;15.13;12.77;;;10.90;99.90;;;;;;5087246;28;20554;-77
2022/05/01 06:06:56;;;;;;;15.03;12.57;;;11.00;99.90;;;;;;5084109;28;20476;-76
2022/05/01 06:09:41;;;;;;;19.17;11.60;;;11.00;99.90;;;;;;5090074;28;20488;-76
2022/05/01 06:12:28;;;;;;;14.37;12.30;;;11.10;99.90;;;;;;5090434;28;20598;-77
2022/05/01 06:15:13;;;;;;;18.13;14.30;;;11.10;99.90;;;;;;5083964;28;20801;-76
2022/05/01 06:17:59;;;;;;;18.47;11.97;;;11.20;99.90;;;;;;5089377;28;20583;-76
2022/05/01 06:20:45;;;;;;;22.23;13.80;;;11.20;99.90;;;;;;5090833;28;20476;-76
2022/05/01 06:23:32;;;;;;;17.00;12.03;;;11.30;99.90;;;;;;5086737;28;20594;-76
2022/05/01 06:26:17;;;;;;;16.23;13.80;;;11.30;99.90;;;;;;5090467;28;20571;-76
2022/05/01 06:29:04;;;;;;;16.47;12.90;;;11.30;99.90;;;;;;5090556;28;20461;-76
2022/05/01 06:31:49;;;;;;;14.40;11.50;;;11.30;99.90;;;;;;5089642;28;20448;-76
2022/05/01 06:34:36;;;;;;;19.50;13.27;;;11.40;99.90;;;;;;5086608;28;20450;-76
2022/05/01 06:37:22;;;;;;;15.23;12.43;;;11.40;99.90;;;;;;5088849;28;20535;-77
2022/05/01 06:40:10;;;;;;;14.40;12.00;;;11.50;99.90;;;;;;5089876;28;20435;-77
2022/05/01 06:42:56;;;;;;;17.40;12.90;;;11.50;99.90;;;;;;5086693;28;20488;-76
2022/05/01 06:45:42;;;;;;;19.83;12.03;;;11.50;99.90;;;;;;5088330;28;20986;-77
2022/05/01 06:48:28;;;;;;;21.20;13.30;;;11.60;99.90;;;;;;5087540;28;20902;-77
2022/05/01 06:51:13;;;;;;;15.67;12.03;;;11.60;99.90;;;;;;5089861;28;20420;-76
2022/05/01 06:53:59;;;;;;;15.80;12.03;;;11.70;99.90;;;;;;5085573;28;20446;-77
2022/05/01 06:56:46;;;;;;;16.80;12.63;;;11.70;99.90;;;;;;5086726;28;20467;-77
2022/05/01 06:59:32;;;;;;;25.23;14.13;;;11.70;99.90;;;;;;5087997;28;20502;-76
2022/05/01 07:02:18;;;;;;;16.50;12.10;;;11.70;99.90;;;;;;5089794;28;21022;-77
2022/05/01 07:05:04;;;;;;;16.43;14.03;;;11.70;99.90;;;;;;5085645;28;20452;-77
2022/05/01 07:07:50;;;;;;;16.47;12.40;;;11.60;99.90;;;;;;5088506;28;20464;-77
2022/05/01 07:10:36;;;;;;;16.50;12.30;;;11.70;99.90;;;;;;5087146;28;20534;-77
2022/05/01 07:13:23;;;;;;;14.17;11.70;;;11.80;99.90;;;;;;5086930;28;20417;-77
2022/05/01 07:16:08;;;;;;;18.17;11.90;;;11.80;99.90;;;;;;5089675;28;20808;-77
2022/05/01 07:18:54;;;;;;;22.63;12.40;;;11.80;99.90;;;;;;5087092;28;20816;-76
2022/05/01 07:21:39;;;;;;;19.03;12.43;;;11.70;99.90;;;;;;5085303;28;20488;-77
2022/05/01 07:24:25;;;;;;;14.80;12.50;;;11.50;99.90;;;;;;5084989;28;20456;-76
2022/05/01 07:27:10;;;;;;;17.00;12.50;;;11.60;99.90;;;;;;5089789;28;20445;-76
2022/05/01 07:29:57;;;;;;;18.00;12.93;;;11.70;99.90;;;;;;5088354;28;20472;-77
2022/05/01 07:32:43;;;;;;;17.97;12.03;;;11.80;99.90;;;;;;5081929;28;20445;-77
2022/05/01 07:35:29;;;;;;;21.30;11.70;;;11.90;99.90;;;;;;5084732;28;20951;-76
2022/05/01 07:38:14;;;;;;;17.43;12.00;;;11.90;99.90;;;;;;5088892;28;20445;-76
2022/05/01 07:41:00;;;;;;;16.27;12.80;;;11.90;99.90;;;;;;5088069;28;20431;-76
2022/05/01 07:43:45;;;;;;;16.33;12.03;;;12.00;99.90;;;;;;5084002;28;20493;-76
2022/05/01 07:46:33;;;;;;;16.83;12.20;;;12.00;99.90;;;;;;5088292;28;20925;-76
2022/05/01 07:49:20;;;;;;;18.87;14.17;;;12.10;99.90;;;;;;5089025;28;20550;-76
2022/05/01 07:52:07;;;;;;;14.60;12.20;;;12.30;99.90;;;;;;5085177;28;20438;-76
2022/05/01 07:54:53;;;;;;;14.17;12.57;;;12.40;99.90;;;;;;5086213;28;20444;-77
2022/05/01 07:57:38;;;;;;;37.30;15.03;;;12.60;99.90;;;;;;5089527;28;20453;-77
2022/05/01 08:00:24;;;;;;;14.10;11.33;;;12.70;99.90;;;;;;5088853;28;20612;-77
2022/05/01 08:06:15;;;;;;;22.70;12.97;;;12.90;99.90;;;;;;5085253;28;20408;-76
2022/05/01 08:09:01;;;;;;;17.47;12.87;;;13.00;99.90;;;;;;5085947;28;20986;-77
2022/05/01 08:11:47;;;;;;;17.07;12.20;;;13.10;99.90;;;;;;5084552;28;20443;-76
2022/05/01 08:14:32;;;;;;;16.80;12.13;;;13.20;99.90;;;;;;5088941;28;20957;-77
2022/05/01 08:17:18;;;;;;;14.70;12.33;;;13.30;99.90;;;;;;5088361;28;20961;-77
2022/05/01 08:23:09;;;;;;;17.20;13.00;;;13.50;99.90;;;;;;5085655;28;20444;-76
2022/05/01 08:25:55;;;;;;;17.03;12.93;;;13.60;99.90;;;;;;5089877;28;20412;-76
2022/05/01 08:28:42;;;;;;;15.53;11.87;;;13.70;99.90;;;;;;5084994;28;20442;-77
2022/05/01 08:31:28;;;;;;;14.73;11.67;;;13.80;99.90;;;;;;5083790;28;20447;-77
2022/05/01 08:34:14;;;;;;;18.77;12.13;;;13.90;99.90;;;;;;5087481;28;20416;-76
2022/05/01 08:37:01;;;;;;;13.10;11.70;;;13.90;99.90;;;;;;5087670;28;21080;-77
2022/05/01 08:39:46;;;;;;;15.20;12.00;;;13.80;99.90;;;;;;5088215;28;20485;-77
2022/05/01 08:42:36;;;;;;;15.30;10.67;;;13.80;99.90;;;;;;5081483;28;20416;-76
2022/05/01 08:45:26;;;;;;;15.80;10.73;;;13.80;99.90;;;;;;5088598;28;20788;-76
2022/05/01 08:48:16;;;;;;;14.43;11.70;;;13.90;99.90;;;;;;5088207;28;20929;-76
2022/05/01 08:51:02;;;;;;;15.37;11.60;;;14.00;99.90;;;;;;5084269;28;20755;-76
2022/05/01 08:53:50;;;;;;;13.30;11.87;;;13.90;99.90;;;;;;5086242;28;20491;-76
2022/05/01 08:56:37;;;;;;;13.53;12.07;;;13.80;99.90;;;;;;5084305;28;20948;-77
2022/05/01 08:59:25;;;;;;;15.10;12.10;;;13.90;99.90;;;;;;5088411;28;20461;-76
2022/05/01 09:02:12;;;;;;;14.80;11.77;;;14.00;99.90;;;;;;5081977;28;20779;-76
2022/05/01 09:05:00;;;;;;;13.50;10.87;;;14.00;99.90;;;;;;5085130;28;20469;-77
2022/05/01 09:07:45;;;;;;;16.03;10.90;;;14.10;99.90;;;;;;5086886;28;20554;-77
2022/05/01 09:10:34;;;;;;;14.40;11.63;;;14.20;99.90;;;;;;5081580;28;20567;-77
2022/05/01 09:13:23;;;;;;;15.20;12.03;;;14.20;99.90;;;;;;5085504;28;20528;-77
2022/05/01 09:16:13;;;;;;;14.37;11.10;;;14.30;99.90;;;;;;5087872;28;20463;-77
2022/05/01 09:18:58;;;;;;;13.87;10.63;;;14.30;99.90;;;;;;5087033;28;20502;-77
2022/05/01 09:21:53;;;;;;;21.70;10.63;;;14.10;99.90;;;;;;5092513;28;20424;-77
2022/05/01 09:24:39;;;;;;;17.37;12.23;;;14.10;99.90;;;;;;5091433;28;20452;-78
2022/05/01 09:27:32;;;;;;;17.07;11.70;;;14.00;99.90;;;;;;5100793;28;20440;-78
2022/05/01 09:30:20;;;;;;;11.73;10.43;;;14.10;99.90;;;;;;5091750;28;20462;-78
2022/05/01 09:33:08;;;;;;;16.60;10.80;;;14.10;99.90;;;;;;5090552;28;20425;-76
2022/05/01 09:35:54;;;;;;;15.20;13.37;;;14.20;99.90;;;;;;5083589;28;20425;-76
2022/05/01 09:38:40;;;;;;;13.47;10.77;;;14.10;99.90;;;;;;5085261;28;21043;-77
2022/05/01 09:41:28;;;;;;;14.63;11.83;;;14.20;99.90;;;;;;5086537;28;20452;-77
2022/05/01 09:44:17;;;;;;;16.17;13.13;;;14.20;99.90;;;;;;5091744;28;20801;-76
2022/05/01 09:47:02;;;;;;;15.97;12.33;;;14.10;99.90;;;;;;5084701;28;20465;-76
2022/05/01 09:49:52;;;;;;;17.17;12.00;;;13.90;99.90;;;;;;5088525;28;20447;-77
2022/05/01 09:52:58;;;;;;;16.90;14.07;;;13.90;99.90;;;;;;5087654;28;20451;-76
2022/05/01 09:55:43;;;;;;;16.60;12.87;;;13.80;99.90;;;;;;5082388;28;20431;-77
2022/05/01 09:58:32;;;;;;;21.43;13.37;;;13.90;99.90;;;;;;5089092;28;20453;-77
2022/05/01 10:01:19;;;;;;;15.20;13.10;;;13.90;99.90;;;;;;5089953;28;20429;-77
2022/05/01 10:04:06;;;;;;;19.57;12.83;;;14.00;99.90;;;;;;5090777;28;20444;-77
2022/05/01 10:06:53;;;;;;;16.00;13.60;;;14.00;99.90;;;;;;5085990;28;20416;-77
2022/05/01 10:09:40;;;;;;;16.37;12.80;;;14.00;99.90;;;;;;5087416;28;20609;-77
2022/05/01 10:12:28;;;;;;;16.17;14.23;;;13.90;99.90;;;;;;5090459;28;20825;-77
2022/05/01 10:15:16;;;;;;;20.53;13.60;;;14.10;99.90;;;;;;5086375;28;20451;-77
2022/05/01 10:18:04;;;;;;;14.80;12.27;;;14.20;99.90;;;;;;5088456;28;20498;-77
2022/05/01 10:20:50;;;;;;;14.43;12.67;;;14.30;99.90;;;;;;5090007;28;20513;-77
2022/05/01 10:23:36;;;;;;;15.17;13.40;;;14.40;99.90;;;;;;5086404;28;20471;-77
2022/05/01 10:26:27;;;;;;;21.17;14.70;;;14.30;99.90;;;;;;5089180;28;20447;-77
2022/05/01 10:29:39;;;;;;;16.90;14.73;;;14.20;99.90;;;;;;5090128;28;20471;-77
2022/05/01 10:32:42;;;;;;;19.97;13.07;;;14.40;99.90;;;;;;5090444;28;20424;-76
2022/05/01 10:35:54;;;;;;;14.23;12.73;;;14.30;99.90;;;;;;5085463;28;20420;-76
2022/05/01 10:38:45;;;;;;;17.50;13.97;;;14.50;99.90;;;;;;5087000;28;20517;-77
2022/05/01 10:41:33;;;;;;;18.47;14.60;;;14.60;99.90;;;;;;5090641;28;20438;-77
2022/05/01 10:44:30;;;;;;;19.43;15.00;;;14.80;99.90;;;;;;5088527;28;20469;-76
2022/05/01 10:47:18;;;;;;;19.10;14.40;;;14.80;99.90;;;;;;5082818;28;20953;-76
2022/05/01 10:50:07;;;;;;;17.30;14.30;;;15.00;99.90;;;;;;5084733;28;21022;-77
2022/05/01 10:53:06;;;;;;;16.67;13.97;;;15.20;99.90;;;;;;5086761;28;20433;-75
2022/05/01 10:56:15;;;;;;;15.57;12.37;;;14.90;99.90;;;;;;5080744;28;20446;-77
2022/05/01 10:59:46;;;;;;;13.87;11.83;;;14.80;99.90;;;;;;5087054;28;20420;-77
2022/05/01 11:02:39;;;;;;;15.50;12.80;;;14.60;99.90;;;;;;5054114;28;20427;-77
2022/05/01 11:05:42;;;;;;;19.57;13.60;;;14.50;99.90;;;;;;5082366;28;20457;-76
2022/05/01 11:08:33;;;;;;;14.93;12.50;;;14.50;99.90;;;;;;5087488;28;21011;-77
2022/05/01 11:11:20;;;;;;;16.70;13.50;;;14.40;99.90;;;;;;5099043;22;20510;-72
2022/05/01 11:14:06;;;;;;;21.10;15.20;;;14.40;99.90;;;;;;5084503;28;20512;-72
2022/05/01 11:16:54;;;;;;;18.73;13.33;;;14.40;99.90;;;;;;5087076;28;20499;-70
2022/05/01 11:19:46;;;;;;;14.90;13.27;;;14.50;99.90;;;;;;5085021;28;20474;-71
2022/05/01 11:22:33;;;;;;;18.03;13.40;;;14.60;99.90;;;;;;5086199;28;20994;-71
2022/05/01 11:25:30;;;;;;;17.00;13.90;;;14.50;99.90;;;;;;5080718;28;20461;-71
2022/05/01 11:28:47;;;;;;;15.23;12.47;;;14.40;99.90;;;;;;5086335;28;20799;-70
2022/05/01 11:31:50;;;;;;;16.13;14.43;;;14.50;99.90;;;;;;5078387;28;20436;-72
2022/05/01 11:34:38;;;;;;;18.63;14.03;;;14.50;99.90;;;;;;5082489;28;20445;-72
2022/05/01 11:37:24;;;;;;;13.67;12.17;;;14.50;99.90;;;;;;5080665;28;20481;-72
2022/05/01 11:40:30;;;;;;;18.33;14.80;;;14.50;99.90;;;;;;5077159;28;20437;-72
2022/05/01 11:43:18;;;;;;;17.70;13.83;;;14.50;99.90;;;;;;5077608;28;20420;-72
2022/05/01 11:46:05;;;;;;;21.93;13.50;;;14.50;99.90;;;;;;5081303;28;20409;-72
2022/05/01 11:48:51;;;;;;;16.60;13.20;;;14.40;99.90;;;;;;5086442;28;20777;-72
2022/05/01 11:51:37;;;;;;;18.30;13.43;;;14.40;99.90;;;;;;5077214;28;20435;-72
2022/05/01 11:54:24;;;;;;;15.80;13.90;;;14.30;99.90;;;;;;5071911;28;20771;-72
2022/05/01 12:03:29;;;;;;;18.43;12.73;;;14.00;99.90;;;;;;5083788;28;20424;-72
2022/05/01 12:06:25;;;;;;;20.07;13.93;;;14.00;99.90;;;;;;5081877;28;20760;-72
2022/05/01 12:09:11;;;;;;;14.83;13.00;;;14.10;99.90;;;;;;5077490;28;20475;-72
2022/05/01 12:11:57;;;;;;;15.50;12.10;;;14.10;99.90;;;;;;5076348;28;20502;-73
2022/05/01 12:14:45;;;;;;;14.70;12.77;;;14.10;99.90;;;;;;5083094;28;20826;-73
2022/05/01 12:17:32;;;;;;;14.40;12.90;;;14.20;99.90;;;;;;5090565;28;20491;-73
2022/05/01 12:20:18;;;;;;;15.90;13.60;;;14.10;99.90;;;;;;5082718;28;20529;-73
2022/05/01 12:23:04;;;;;;;15.13;12.13;;;14.20;99.90;;;;;;5075906;28;20937;-74
2022/05/01 12:25:51;;;;;;;14.73;12.93;;;14.10;99.90;;;;;;5088626;28;20586;-73
2022/05/01 12:28:37;;;;;;;14.53;12.33;;;14.10;99.90;;;;;;5087598;28;20439;-73
2022/05/01 12:31:24;;;;;;;13.80;11.90;;;14.00;99.90;;;;;;5080125;28;20663;-73
2022/05/01 12:34:10;;;;;;;19.03;13.23;;;14.10;99.90;;;;;;5091655;28;20418;-73
2022/05/01 12:36:57;;;;;;;14.17;11.97;;;14.20;99.90;;;;;;5092448;28;20415;-74
2022/05/01 12:39:43;;;;;;;21.07;12.50;;;14.30;99.90;;;;;;5086095;28;20451;-73
2022/05/01 12:45:37;;;;;;;16.20;11.90;;;14.50;99.90;;;;;;5070980;28;20486;-73
2022/05/01 12:48:25;;;;;;;14.83;13.20;;;14.70;99.90;;;;;;5078505;28;20434;-74
2022/05/01 12:51:12;;;;;;;20.13;12.50;;;14.90;99.90;;;;;;5079082;28;20797;-73
2022/05/01 12:54:09;;;;;;;13.47;11.60;;;15.10;99.90;;;;;;5087230;28;20799;-73
2022/05/01 12:56:57;;;;;;;12.93;10.93;;;15.20;99.90;;;;;;5083146;28;20504;-73
2022/05/01 12:59:54;;;;;;;13.10;11.80;;;15.30;99.90;;;;;;5078662;28;20461;-73
2022/05/01 13:02:41;;;;;;;16.17;12.47;;;15.30;99.90;;;;;;5075018;28;20426;-74
2022/05/01 13:05:29;;;;;;;13.20;11.20;;;15.30;99.90;;;;;;5077563;28;20454;-74
2022/05/01 13:08:18;;;;;;;13.87;12.03;;;15.40;99.90;;;;;;5089096;28;20772;-73
2022/05/01 13:11:12;;;;;;;14.53;12.60;;;15.40;99.90;;;;;;5084139;28;20478;-74
2022/05/01 13:14:01;;;;;;;14.57;12.50;;;15.30;99.90;;;;;;5091240;28;20841;-73
2022/05/01 13:16:47;;;;;;;18.80;13.30;;;15.30;99.90;;;;;;5093879;28;20538;-73
2022/05/01 13:19:33;;;;;;;16.67;13.30;;;15.30;99.90;;;;;;5084084;28;20450;-74
2022/05/01 13:22:21;;;;;;;19.53;12.33;;;15.30;99.90;;;;;;5074099;28;20932;-73
2022/05/01 13:25:12;;;;;;;18.03;12.57;;;15.60;99.90;;;;;;5085661;28;20439;-74
2022/05/01 13:27:57;;;;;;;17.37;13.57;;;15.80;99.90;;;;;;5087232;28;20478;-74
2022/05/01 13:30:43;;;;;;;14.80;12.47;;;16.10;99.90;;;;;;5078529;28;20441;-73
2022/05/01 13:33:32;;;;;;;15.90;13.03;;;16.60;99.90;;;;;;5073703;28;20472;-73
2022/05/01 13:36:18;;;;;;;15.03;11.20;;;17.10;99.90;;;;;;5093207;28;20446;-74
2022/05/01 13:39:09;;;;;;;16.20;11.23;;;17.50;99.90;;;;;;5089047;28;21093;-73
2022/05/01 13:45:00;;;;;;;11.83;10.60;;;18.10;93.60;;;;;;5095258;28;20879;-74
2022/05/01 13:47:48;;;;;;;20.67;11.00;;;17.90;91.00;;;;;;5091110;28;20424;-72
2022/05/01 13:50:35;;;;;;;13.47;12.07;;;17.90;92.30;;;;;;5091399;28;20427;-72
2022/05/01 13:53:21;;;;;;;14.10;10.50;;;17.70;90.40;;;;;;5087674;28;20492;-74
2022/05/01 13:56:11;;;;;;;15.03;12.33;;;17.70;90.00;;;;;;5093828;28;20808;-73
2022/05/01 13:58:57;;;;;;;18.23;11.10;;;17.60;90.30;;;;;;5087749;28;21189;-73
2022/05/01 14:01:44;;;;;;;21.53;12.90;;;17.60;90.80;;;;;;5091565;28;20444;-73
2022/05/01 14:04:30;;;;;;;15.50;11.70;;;17.50;90.40;;;;;;5093879;28;20557;-74
2022/05/01 14:07:16;;;;;;;17.70;11.87;;;17.70;89.80;;;;;;5093066;28;20417;-74
2022/05/01 14:10:02;;;;;;;19.27;11.00;;;17.80;89.30;;;;;;5086313;28;20481;-74
2022/05/01 14:12:49;;;;;;;14.97;10.93;;;18.00;89.20;;;;;;5091625;28;20445;-74
2022/05/01 14:15:35;;;;;;;12.60;9.93;;;18.40;88.50;;;;;;5089579;28;20416;-73
2022/05/01 14:18:24;;;;;;;17.80;11.10;;;18.70;85.40;;;;;;5088699;28;20431;-73
2022/05/01 14:21:12;;;;;;;14.90;12.43;;;19.00;83.10;;;;;;5086388;28;20463;-73
2022/05/01 14:23:58;;;;;;;15.33;11.77;;;19.10;78.90;;;;;;5088413;28;20798;-73
2022/05/01 14:26:45;;;;;;;13.13;11.13;;;19.20;77.60;;;;;;5085815;28;20799;-73
2022/05/01 14:29:31;;;;;;;17.17;12.13;;;18.90;76.60;;;;;;5085198;28;20424;-74
2022/05/01 14:32:21;;;;;;;17.07;11.90;;;18.80;76.10;;;;;;5092158;28;20434;-74
2022/05/01 14:35:09;;;;;;;16.53;12.10;;;18.50;76.70;;;;;;5089760;28;20496;-74
2022/05/01 14:38:00;;;;;;;12.40;11.17;;;18.70;77.10;;;;;;5087466;28;20460;-74
2022/05/01 14:40:49;;;;;;;13.47;12.07;;;19.00;74.10;;;;;;5087594;28;20485;-73
2022/05/01 14:43:35;;;;;;;12.13;10.73;;;19.00;69.60;;;;;;5091224;28;20401;-72